Sonja — V2CR8 — position and weather

sailwx.info

Track history (hours):
 
Tides and Currents Weather Stations Pressure Air Temp Water Temp Dewpoint Dewpoint Depression Visibility Wind Speed Wind Dir Waves Ship Positions

Sonja

Last reported at 2017-Oct-16 09:35 UTC. Time now 2017-Oct-16 22:28 UTC.
Position S 32°28' E 152°39'.

Length 101 m; draft 5.1 m.

Type: Cargo ship. MMSI: 305089000.

Date/timePositionNaut miles runAvg speedWind from/ knotsBaromVisibWave heightAir tempDewpointWater temp
2017-Oct-16 09:35S 32°28' E 152°39'1 9.1
2017-Oct-16 09:30S 32°28' E 152°39'5 8.7
2017-Oct-16 08:57S 32°32' E 152°35'4 9.1
2017-Oct-16 08:30S 32°35' E 152°32'5 9.5
2017-Oct-16 08:00S 32°38' E 152°28'5 9.8
2017-Oct-16 07:30S 32°42' E 152°24'5 9.7
2017-Oct-16 07:00S 32°45' E 152°20'5 9.7
2017-Oct-16 06:30S 32°49' E 152°16'510.0
2017-Oct-16 06:00S 32°52' E 152°12'5 9.6
2017-Oct-16 05:30S 32°54' E 152°06'510.4
2017-Oct-16 05:01S 32°54' E 152°00'910.0
2017-Oct-16 04:06S 32°56' E 151°49'0 5.2
2017-Oct-16 04:00S 32°55' E 151°49'  
2017-Oct-13 06:22S 32°55' E 151°46'0 1.3
2017-Oct-13 06:00S 32°55' E 151°46'3 6.2
2017-Oct-13 05:31S 32°56' E 151°50'4 7.8
2017-Oct-13 05:01S 32°58' E 151°54'3 5.6
2017-Oct-13 04:30S 32°57' E 151°57'4 7.4
2017-Oct-13 04:00S 32°56' E 152°01'5 9.1
2017-Oct-13 03:30S 32°54' E 152°06'510.4
2017-Oct-13 03:00S 32°53' E 152°12'510.3
2017-Oct-13 02:30S 32°49' E 152°16'510.3
2017-Oct-13 02:00S 32°45' E 152°20'510.6
2017-Oct-13 01:30S 32°41' E 152°24'510.6
2017-Oct-13 01:00S 32°37' E 152°29'510.7
2017-Oct-13 00:30S 32°34' E 152°34'610.8
2017-Oct-12 23:59S 32°30' E 152°38'23212.7
2017-Oct-12 05:47S 28°45' E 153°45'413.7
2017-Oct-12 05:30S 28°41' E 153°45'714.1
2017-Oct-12 05:00S 28°34' E 153°46'714.9
2017-Oct-12 04:30S 28°27' E 153°45'714.9
2017-Oct-12 04:01S 28°19' E 153°44'714.8
2017-Oct-12 03:30S 28°12' E 153°44'714.6
2017-Oct-12 03:01S 28°05' E 153°43'714.8
2017-Oct-12 02:30S 27°57' E 153°42'714.6
2017-Oct-12 02:00S 27°50' E 153°41'714.4
2017-Oct-12 01:30S 27°43' E 153°41'3813.8
2017-Oct-11 22:46S 27°05' E 153°38'  
Track history (hours):
 
Tides and Currents Weather Stations Pressure Air Temp Water Temp Dewpoint Dewpoint Depression Visibility Wind Speed Wind Dir Waves Ship Positions

Sonja

Last reported at 2017-Oct-16 09:35 UTC. Time now 2017-Oct-16 22:28 UTC.
Position S 32°28' E 152°39'.

Length 101 m; draft 5.1 m.

Type: Cargo ship. MMSI: 305089000.

Date/timePositionNaut miles runAvg speedWind from/ knotsBaromVisibWave heightAir tempDewpointWater temp
2017-Oct-16 09:35S 32°28' E 152°39'1 9.1
2017-Oct-16 09:30S 32°28' E 152°39'5 8.7
2017-Oct-16 08:57S 32°32' E 152°35'4 9.1
2017-Oct-16 08:30S 32°35' E 152°32'5 9.5
2017-Oct-16 08:00S 32°38' E 152°28'5 9.8
2017-Oct-16 07:30S 32°42' E 152°24'5 9.7
2017-Oct-16 07:00S 32°45' E 152°20'5 9.7
2017-Oct-16 06:30S 32°49' E 152°16'510.0
2017-Oct-16 06:00S 32°52' E 152°12'5 9.6
2017-Oct-16 05:30S 32°54' E 152°06'510.4
2017-Oct-16 05:01S 32°54' E 152°00'910.0
2017-Oct-16 04:06S 32°56' E 151°49'0 5.2
2017-Oct-16 04:00S 32°55' E 151°49'  
2017-Oct-13 06:22S 32°55' E 151°46'0 1.3
2017-Oct-13 06:00S 32°55' E 151°46'3 6.2
2017-Oct-13 05:31S 32°56' E 151°50'4 7.8
2017-Oct-13 05:01S 32°58' E 151°54'3 5.6
2017-Oct-13 04:30S 32°57' E 151°57'4 7.4
2017-Oct-13 04:00S 32°56' E 152°01'5 9.1
2017-Oct-13 03:30S 32°54' E 152°06'510.4
2017-Oct-13 03:00S 32°53' E 152°12'510.3
2017-Oct-13 02:30S 32°49' E 152°16'510.3
2017-Oct-13 02:00S 32°45' E 152°20'510.6
2017-Oct-13 01:30S 32°41' E 152°24'510.6
2017-Oct-13 01:00S 32°37' E 152°29'510.7
2017-Oct-13 00:30S 32°34' E 152°34'610.8
2017-Oct-12 23:59S 32°30' E 152°38'23212.7
2017-Oct-12 05:47S 28°45' E 153°45'413.7
2017-Oct-12 05:30S 28°41' E 153°45'714.1
2017-Oct-12 05:00S 28°34' E 153°46'714.9
2017-Oct-12 04:30S 28°27' E 153°45'714.9
2017-Oct-12 04:01S 28°19' E 153°44'714.8
2017-Oct-12 03:30S 28°12' E 153°44'714.6
2017-Oct-12 03:01S 28°05' E 153°43'714.8
2017-Oct-12 02:30S 27°57' E 153°42'714.6
2017-Oct-12 02:00S 27°50' E 153°41'714.4
2017-Oct-12 01:30S 27°43' E 153°41'3813.8
2017-Oct-11 22:46S 27°05' E 153°38'  

Dump ship's entire track history